MiSS Gill — WDD3010 — position and weather

sailwx.info

Track history (hours):
 
Tides and Currents Weather Stations Pressure Air Temp Water Temp Dewpoint Dewpoint Depression Visibility Wind Speed Wind Dir Waves Ship Positions

MiSS Gill

Owner: Willoughgy Spit LLC, Norfolk, VA. More information available from US FCC via Universal Licensing System and Coast Guard Vessel Documentation Center.

Last reported at 2017-Sep-15 20:10 UTC. Time now 2017-Sep-24 10:24 UTC.
Position N 40°53' W 073°56'.
Warning: this ship's position is 8 days out of date.

Length 33 m; draft 4.6 m.

Type: Towing. MMSI: 367122680.

Date/timePositionNaut miles runAvg speedWind from/ knotsBaromVisibWave heightAir tempDewpointWater temp
2017-Sep-15 20:10N 40°53' W 073°56'1 8.7
2017-Sep-15 20:00N 40°52' W 073°57'4 8.4
2017-Sep-15 19:30N 40°48' W 073°59'4 7.8
2017-Sep-15 19:01N 40°44' W 074°01'4 7.2
2017-Sep-15 18:31N 40°41' W 074°02'3 5.7
2017-Sep-15 18:01N 40°39' W 074°05'2 4.7
2017-Sep-15 17:29N 40°39' W 074°08'2 4.6
2017-Sep-15 17:00N 40°41' W 074°08'3 5.4
2017-Sep-15 16:30N 40°43' W 074°06'2 3.4
2017-Sep-15 16:00N 40°44' W 074°05'0 0.2
2017-Sep-15 13:51N 40°45' W 074°04'0 0.0
2017-Sep-15 09:39N 40°45' W 074°04'0 0.0
2017-Sep-15 09:09N 40°45' W 074°04'0 0.0
2017-Sep-15 08:51N 40°45' W 074°04'0 0.0
2017-Sep-15 07:09N 40°45' W 074°04'0 0.0
2017-Sep-15 06:51N 40°45' W 074°04'0 0.0
2017-Sep-15 06:21N 40°45' W 074°04'0 0.0
2017-Sep-15 05:48N 40°45' W 074°04'0 0.0
2017-Sep-15 05:30N 40°45' W 074°04'0 0.0
2017-Sep-15 05:00N 40°45' W 074°04'0 0.0
2017-Sep-15 04:30N 40°45' W 074°04'0 0.0
2017-Sep-15 03:57N 40°45' W 074°04'0 0.0
2017-Sep-15 01:27N 40°45' W 074°04'0 0.0
2017-Sep-15 01:00N 40°45' W 074°04'0 0.0
2017-Sep-15 00:30N 40°45' W 074°04'0 0.0
2017-Sep-15 00:00N 40°45' W 074°04'0 0.0
2017-Sep-14 23:27N 40°45' W 074°04'0 0.0
2017-Sep-14 22:51N 40°45' W 074°04'0 0.0
2017-Sep-14 22:21N 40°45' W 074°04'0 0.0
2017-Sep-14 21:48N 40°45' W 074°04'0 0.0
2017-Sep-14 21:15N 40°45' W 074°04'0 0.0
2017-Sep-14 21:00N 40°45' W 074°04'0 0.0
2017-Sep-14 20:30N 40°45' W 074°04'0 0.0
2017-Sep-14 19:45N 40°45' W 074°04'0 0.0
2017-Sep-14 19:30N 40°45' W 074°04'0 0.0
2017-Sep-14 19:00N 40°45' W 074°04'0 0.0
2017-Sep-14 17:24N 40°45' W 074°04'0 0.0
2017-Sep-14 16:51N 40°45' W 074°04'0 0.0
2017-Sep-14 16:30N 40°45' W 074°04'0 0.0
2017-Sep-14 15:09N 40°45' W 074°04'0 0.0
2017-Sep-14 14:45N 40°45' W 074°04'0 0.0
2017-Sep-14 14:27N 40°45' W 074°04'0 0.0
2017-Sep-14 13:54N 40°45' W 074°04'0 0.0
2017-Sep-14 10:36N 40°45' W 074°04'0 0.0
2017-Sep-14 10:27N 40°45' W 074°04'0 0.0
2017-Sep-14 09:57N 40°45' W 074°04'0 0.0
2017-Sep-14 09:21N 40°45' W 074°04'0 0.0
2017-Sep-14 05:24N 40°45' W 074°04'0 0.0
2017-Sep-14 04:51N 40°45' W 074°04'0 0.0
2017-Sep-14 03:48N 40°45' W 074°04'0 0.0
2017-Sep-14 03:00N 40°45' W 074°04'0 0.0
2017-Sep-13 17:26N 40°45' W 074°04'0 0.0
2017-Sep-13 16:55N 40°45' W 074°04'0 0.0
2017-Sep-13 15:09N 40°45' W 074°04'0 0.0
2017-Sep-13 14:56N 40°45' W 074°04'0 0.0
2017-Sep-13 13:39N 40°45' W 074°04'0 0.0
2017-Sep-13 13:28N 40°45' W 074°04'0 0.0
2017-Sep-13 11:39N 40°45' W 074°04'0 0.0
2017-Sep-13 11:22N 40°45' W 074°04'0 0.0
2017-Sep-13 10:55N 40°45' W 074°04'0 0.0
2017-Sep-13 09:53N 40°45' W 074°04'0 0.0
2017-Sep-13 09:27N 40°45' W 074°04'0 0.0
2017-Sep-13 08:59N 40°45' W 074°04'0 0.0
2017-Sep-13 08:30N 40°45' W 074°04'0 0.0
2017-Sep-13 07:37N 40°45' W 074°04'0 0.0
2017-Sep-13 07:26N 40°45' W 074°04'0 0.0
2017-Sep-13 06:57N 40°45' W 074°04'0 0.0
2017-Sep-13 06:30N 40°45' W 074°04'0 0.0
2017-Sep-13 06:00N 40°45' W 074°04'0 0.0
2017-Sep-13 05:30N 40°45' W 074°04'0 0.0
2017-Sep-13 05:00N 40°45' W 074°04'0 0.0
2017-Sep-13 04:30N 40°45' W 074°04'0 0.0
2017-Sep-13 04:00N 40°45' W 074°04'0 0.1
2017-Sep-13 03:30N 40°45' W 074°04'0 0.2
2017-Sep-13 03:00N 40°45' W 074°05'1 2.1
2017-Sep-13 02:29N 40°44' W 074°06'3 5.9
2017-Sep-13 01:59N 40°41' W 074°07'0 0.8
2017-Sep-13 01:30N 40°41' W 074°08'0 0.2
2017-Sep-13 01:00N 40°41' W 074°08'0 0.7
2017-Sep-13 00:26N 40°41' W 074°08'0 0.1
2017-Sep-12 23:59N 40°41' W 074°08'0 0.0
2017-Sep-12 23:26N 40°41' W 074°08'0 0.0
2017-Sep-12 22:47N 40°41' W 074°08'0 0.0
2017-Sep-12 22:29N 40°41' W 074°08'0 0.0
2017-Sep-12 21:56N 40°41' W 074°08'0 0.0
2017-Sep-12 20:41N 40°41' W 074°08'0 0.0
2017-Sep-12 20:17N 40°41' W 074°08'0 0.0
2017-Sep-12 19:47N 40°41' W 074°08'0 0.0
2017-Sep-12 19:29N 40°41' W 074°08'0 0.0
2017-Sep-12 18:59N 40°41' W 074°08'0 0.0
2017-Sep-12 18:23N 40°41' W 074°08'0 0.0
2017-Sep-12 17:53N 40°41' W 074°08'0 0.0
2017-Sep-12 16:47N 40°41' W 074°08'0 0.0
2017-Sep-12 16:23N 40°41' W 074°08'0 0.0
2017-Sep-12 15:56N 40°41' W 074°08'0 0.0
2017-Sep-12 15:29N 40°41' W 074°08'0 0.0
2017-Sep-12 14:44N 40°41' W 074°08'0 0.0
2017-Sep-12 14:29N 40°41' W 074°08'0 0.0
2017-Sep-12 12:59N 40°41' W 074°08'0 0.0
2017-Sep-12 12:29N 40°41' W 074°08'0 0.0
2017-Sep-12 11:59N 40°41' W 074°08'0 0.0
2017-Sep-12 11:11N 40°41' W 074°08'0 0.0
2017-Sep-12 10:50N 40°41' W 074°08'0 0.0
2017-Sep-12 09:26N 40°41' W 074°08'0 0.0
2017-Sep-12 08:59N 40°41' W 074°08'0 0.0
2017-Sep-12 08:29N 40°41' W 074°08'0 0.0
2017-Sep-12 07:59N 40°41' W 074°08'0 0.0
2017-Sep-12 07:23N 40°41' W 074°08'0 0.0
2017-Sep-12 06:59N 40°41' W 074°08'0 0.0
2017-Sep-12 06:29N 40°41' W 074°08'0 0.0
2017-Sep-12 05:59N 40°41' W 074°08'0 0.0
2017-Sep-12 05:29N 40°41' W 074°08'0 0.0
2017-Sep-12 04:41N 40°41' W 074°08'0 0.0
2017-Sep-12 04:26N 40°41' W 074°08'0 0.0
2017-Sep-12 03:59N 40°41' W 074°08'0 0.0
2017-Sep-12 03:29N 40°41' W 074°08'0 0.0
2017-Sep-12 02:59N 40°41' W 074°08'0 0.0
2017-Sep-12 02:20N 40°41' W 074°08'0 0.0
2017-Sep-12 01:59N 40°41' W 074°08'0 0.0
2017-Sep-12 01:29N 40°41' W 074°08'0 0.0
2017-Sep-12 00:59N 40°41' W 074°08'0 0.0
2017-Sep-12 00:29N 40°41' W 074°08'0 0.0
2017-Sep-11 23:29N 40°41' W 074°08'0 0.0
2017-Sep-11 22:59N 40°41' W 074°08'0 0.0
2017-Sep-11 22:29N 40°41' W 074°08'0 0.0
2017-Sep-11 21:59N 40°41' W 074°08'0 0.0
2017-Sep-11 21:29N 40°41' W 074°08'0 0.0
2017-Sep-11 20:53N 40°41' W 074°08'0 0.0
2017-Sep-11 19:36N 40°41' W 074°08'0 0.0
2017-Sep-11 19:30N 40°41' W 074°08'0 0.0
2017-Sep-11 18:54N 40°41' W 074°08'0 0.0
2017-Sep-11 17:45N 40°41' W 074°08'0 0.1
2017-Sep-11 17:30N 40°41' W 074°08'0 0.1
2017-Sep-11 16:48N 40°41' W 074°08'0 0.0
2017-Sep-11 16:21N 40°41' W 074°08'0 0.6
2017-Sep-11 15:45N 40°41' W 074°08'1 2.4
2017-Sep-11 15:30N 40°40' W 074°08'1 2.9
2017-Sep-11 15:00N 40°39' W 074°08'3 6.0
2017-Sep-11 14:30N 40°39' W 074°04'2 4.5
2017-Sep-11 14:00N 40°41' W 074°02'3 5.7
2017-Sep-11 13:30N 40°44' W 074°01'5 6.7
2017-Sep-11 12:46N 40°48' W 073°59'2 7.1
2017-Sep-11 12:30N 40°50' W 073°58'4 0.1
2017-Sep-09 09:43N 40°53' W 073°56'1 2.0
2017-Sep-09 09:25N 40°53' W 073°56'0 0.9
2017-Sep-09 08:58N 40°52' W 073°57'0 0.1
2017-Sep-09 08:28N 40°52' W 073°57'0 0.2
2017-Sep-09 07:58N 40°52' W 073°57'0 0.2
2017-Sep-09 07:28N 40°52' W 073°56'0 0.0
2017-Sep-09 06:58N 40°52' W 073°56'0 0.0
2017-Sep-09 06:22N 40°52' W 073°56'0 0.1
2017-Sep-09 03:43N 40°53' W 073°56'0 0.5
2017-Sep-09 03:19N 40°52' W 073°56'1 4.0
2017-Sep-09 03:00N 40°51' W 073°57'4 8.5
2017-Sep-09 02:30N 40°47' W 073°59'4 8.1
2017-Sep-09 02:00N 40°44' W 074°01'4 7.6
2017-Sep-09 01:30N 40°40' W 074°03'3 5.3
2017-Sep-09 00:58N 40°39' W 074°06'2 4.5
2017-Sep-09 00:30N 40°39' W 074°09'2 5.1
2017-Sep-09 00:00N 40°41' W 074°08'2 4.4
2017-Sep-08 23:30N 40°43' W 074°06'2 3.3
2017-Sep-08 22:57N 40°45' W 074°05'0 0.2
2017-Sep-08 21:29N 40°45' W 074°04'0 0.0
2017-Sep-08 19:47N 40°45' W 074°04'0 0.0
2017-Sep-08 19:23N 40°45' W 074°04'0 0.0
2017-Sep-08 18:53N 40°45' W 074°04'0 0.0
2017-Sep-08 17:29N 40°45' W 074°04'0 0.0
2017-Sep-08 16:59N 40°45' W 074°04'0 0.0
2017-Sep-08 13:47N 40°45' W 074°04'0 0.0
2017-Sep-08 13:26N 40°45' W 074°04'0 0.0
2017-Sep-08 12:56N 40°45' W 074°04'0 0.0
2017-Sep-08 12:26N 40°45' W 074°04'0 0.0
2017-Sep-08 11:02N 40°45' W 074°04'0 0.0
2017-Sep-08 05:17N 40°45' W 074°04'0 0.0
2017-Sep-08 04:59N 40°45' W 074°04'0 0.0
2017-Sep-08 04:29N 40°45' W 074°04'0 0.0
2017-Sep-08 03:59N 40°45' W 074°04'0 0.0
2017-Sep-08 03:29N 40°45' W 074°04'0 0.0
2017-Sep-08 02:59N 40°45' W 074°04'0 0.0
2017-Sep-08 02:23N 40°45' W 074°04'0 0.0
2017-Sep-08 01:53N 40°45' W 074°04'0 0.0
2017-Sep-08 01:29N 40°45' W 074°04'0 0.0
2017-Sep-08 00:17N 40°45' W 074°04'0 0.0
2017-Sep-07 23:50N 40°45' W 074°04'0 0.0
2017-Sep-07 23:29N 40°45' W 074°04'0 0.0
2017-Sep-07 22:56N 40°45' W 074°04'0 0.0
2017-Sep-07 22:26N 40°45' W 074°04'0 0.0
2017-Sep-07 21:56N 40°45' W 074°04'0 0.0
2017-Sep-07 20:53N 40°45' W 074°04'0 0.0
2017-Sep-07 20:11N 40°45' W 074°04'0 0.0
2017-Sep-07 19:53N 40°45' W 074°04'0 0.0
2017-Sep-07 19:17N 40°45' W 074°04'0 0.0
2017-Sep-07 18:59N 40°45' W 074°04'0 0.0
2017-Sep-07 18:29N 40°45' W 074°04'0 0.0
2017-Sep-07 17:59N 40°45' W 074°04'0 0.0
2017-Sep-07 17:14N 40°45' W 074°04'0 0.0
2017-Sep-07 16:59N 40°45' W 074°04'0 0.0
2017-Sep-07 16:26N 40°45' W 074°04'0 0.0
2017-Sep-07 15:56N 40°45' W 074°04'0 0.0
2017-Sep-07 15:08N 40°45' W 074°04'0 0.0
2017-Sep-07 14:59N 40°45' W 074°04'0 0.0
2017-Sep-07 14:26N 40°45' W 074°04'0 0.0
2017-Sep-07 13:47N 40°45' W 074°04'0 0.0
2017-Sep-07 13:23N 40°45' W 074°04'0 0.0
2017-Sep-07 05:29N 40°45' W 074°04'0 0.0
2017-Sep-07 04:50N 40°45' W 074°04'0 0.0
2017-Sep-07 04:26N 40°45' W 074°04'0 0.0
2017-Sep-07 03:56N 40°45' W 074°04'0 0.0
2017-Sep-07 03:29N 40°45' W 074°04'0 0.0
2017-Sep-07 02:59N 40°45' W 074°04'0 0.0
2017-Sep-07 02:29N 40°45' W 074°04'0 0.0
2017-Sep-07 01:56N 40°45' W 074°04'0 0.0
2017-Sep-07 01:23N 40°45' W 074°04'0 0.0
2017-Sep-07 00:59N 40°45' W 074°04'0 0.0
2017-Sep-07 00:29N 40°45' W 074°04'0 0.0
2017-Sep-06 23:59N 40°45' W 074°04'0 0.0
2017-Sep-06 22:05N 40°45' W 074°04'0 0.0
2017-Sep-06 21:53N 40°45' W 074°04'0 0.0
2017-Sep-06 20:26N 40°45' W 074°04'0 0.0
2017-Sep-06 19:41N 40°45' W 074°04'0 0.0
2017-Sep-06 19:23N 40°45' W 074°04'0 0.0
2017-Sep-06 18:56N 40°45' W 074°04'0 0.0
2017-Sep-06 18:20N 40°45' W 074°04'0 0.0
2017-Sep-06 17:59N 40°45' W 074°04'0 0.0
2017-Sep-06 17:29N 40°45' W 074°04'0 0.0
2017-Sep-06 16:59N 40°45' W 074°04'0 0.0
2017-Sep-06 16:23N 40°45' W 074°04'0 0.6
2017-Sep-06 15:59N 40°45' W 074°05'1 0.9
2017-Sep-06 15:19N 40°44' W 074°05'1 4.3
2017-Sep-06 15:00N 40°43' W 074°06'2 4.7
2017-Sep-06 14:30N 40°41' W 074°08'3 5.0
2017-Sep-06 13:59N 40°39' W 074°09'3 5.5
2017-Sep-06 13:30N 40°39' W 074°05'3 5.8
2017-Sep-06 13:00N 40°41' W 074°02'3 6.5
2017-Sep-06 12:30N 40°44' W 074°01'3 6.5
2017-Sep-06 12:00N 40°47' W 073°60'3 6.4
2017-Sep-06 11:31N 40°50' W 073°58'  
Track history (hours):
 
Tides and Currents Weather Stations Pressure Air Temp Water Temp Dewpoint Dewpoint Depression Visibility Wind Speed Wind Dir Waves Ship Positions

MiSS Gill

Owner: Willoughgy Spit LLC, Norfolk, VA. More information available from US FCC via Universal Licensing System and Coast Guard Vessel Documentation Center.

Last reported at 2017-Sep-15 20:10 UTC. Time now 2017-Sep-24 10:24 UTC.
Position N 40°53' W 073°56'.
Warning: this ship's position is 8 days out of date.

Length 33 m; draft 4.6 m.

Type: Towing. MMSI: 367122680.

Date/timePositionNaut miles runAvg speedWind from/ knotsBaromVisibWave heightAir tempDewpointWater temp
2017-Sep-15 20:10N 40°53' W 073°56'1 8.7
2017-Sep-15 20:00N 40°52' W 073°57'4 8.4
2017-Sep-15 19:30N 40°48' W 073°59'4 7.8
2017-Sep-15 19:01N 40°44' W 074°01'4 7.2
2017-Sep-15 18:31N 40°41' W 074°02'3 5.7
2017-Sep-15 18:01N 40°39' W 074°05'2 4.7
2017-Sep-15 17:29N 40°39' W 074°08'2 4.6
2017-Sep-15 17:00N 40°41' W 074°08'3 5.4
2017-Sep-15 16:30N 40°43' W 074°06'2 3.4
2017-Sep-15 16:00N 40°44' W 074°05'0 0.2
2017-Sep-15 13:51N 40°45' W 074°04'0 0.0
2017-Sep-15 09:39N 40°45' W 074°04'0 0.0
2017-Sep-15 09:09N 40°45' W 074°04'0 0.0
2017-Sep-15 08:51N 40°45' W 074°04'0 0.0
2017-Sep-15 07:09N 40°45' W 074°04'0 0.0
2017-Sep-15 06:51N 40°45' W 074°04'0 0.0
2017-Sep-15 06:21N 40°45' W 074°04'0 0.0
2017-Sep-15 05:48N 40°45' W 074°04'0 0.0
2017-Sep-15 05:30N 40°45' W 074°04'0 0.0
2017-Sep-15 05:00N 40°45' W 074°04'0 0.0
2017-Sep-15 04:30N 40°45' W 074°04'0 0.0
2017-Sep-15 03:57N 40°45' W 074°04'0 0.0
2017-Sep-15 01:27N 40°45' W 074°04'0 0.0
2017-Sep-15 01:00N 40°45' W 074°04'0 0.0
2017-Sep-15 00:30N 40°45' W 074°04'0 0.0
2017-Sep-15 00:00N 40°45' W 074°04'0 0.0
2017-Sep-14 23:27N 40°45' W 074°04'0 0.0
2017-Sep-14 22:51N 40°45' W 074°04'0 0.0
2017-Sep-14 22:21N 40°45' W 074°04'0 0.0
2017-Sep-14 21:48N 40°45' W 074°04'0 0.0
2017-Sep-14 21:15N 40°45' W 074°04'0 0.0
2017-Sep-14 21:00N 40°45' W 074°04'0 0.0
2017-Sep-14 20:30N 40°45' W 074°04'0 0.0
2017-Sep-14 19:45N 40°45' W 074°04'0 0.0
2017-Sep-14 19:30N 40°45' W 074°04'0 0.0
2017-Sep-14 19:00N 40°45' W 074°04'0 0.0
2017-Sep-14 17:24N 40°45' W 074°04'0 0.0
2017-Sep-14 16:51N 40°45' W 074°04'0 0.0
2017-Sep-14 16:30N 40°45' W 074°04'0 0.0
2017-Sep-14 15:09N 40°45' W 074°04'0 0.0
2017-Sep-14 14:45N 40°45' W 074°04'0 0.0
2017-Sep-14 14:27N 40°45' W 074°04'0 0.0
2017-Sep-14 13:54N 40°45' W 074°04'0 0.0
2017-Sep-14 10:36N 40°45' W 074°04'0 0.0
2017-Sep-14 10:27N 40°45' W 074°04'0 0.0
2017-Sep-14 09:57N 40°45' W 074°04'0 0.0
2017-Sep-14 09:21N 40°45' W 074°04'0 0.0
2017-Sep-14 05:24N 40°45' W 074°04'0 0.0
2017-Sep-14 04:51N 40°45' W 074°04'0 0.0
2017-Sep-14 03:48N 40°45' W 074°04'0 0.0
2017-Sep-14 03:00N 40°45' W 074°04'0 0.0
2017-Sep-13 17:26N 40°45' W 074°04'0 0.0
2017-Sep-13 16:55N 40°45' W 074°04'0 0.0
2017-Sep-13 15:09N 40°45' W 074°04'0 0.0
2017-Sep-13 14:56N 40°45' W 074°04'0 0.0
2017-Sep-13 13:39N 40°45' W 074°04'0 0.0
2017-Sep-13 13:28N 40°45' W 074°04'0 0.0
2017-Sep-13 11:39N 40°45' W 074°04'0 0.0
2017-Sep-13 11:22N 40°45' W 074°04'0 0.0
2017-Sep-13 10:55N 40°45' W 074°04'0 0.0
2017-Sep-13 09:53N 40°45' W 074°04'0 0.0
2017-Sep-13 09:27N 40°45' W 074°04'0 0.0
2017-Sep-13 08:59N 40°45' W 074°04'0 0.0
2017-Sep-13 08:30N 40°45' W 074°04'0 0.0
2017-Sep-13 07:37N 40°45' W 074°04'0 0.0
2017-Sep-13 07:26N 40°45' W 074°04'0 0.0
2017-Sep-13 06:57N 40°45' W 074°04'0 0.0
2017-Sep-13 06:30N 40°45' W 074°04'0 0.0
2017-Sep-13 06:00N 40°45' W 074°04'0 0.0
2017-Sep-13 05:30N 40°45' W 074°04'0 0.0
2017-Sep-13 05:00N 40°45' W 074°04'0 0.0
2017-Sep-13 04:30N 40°45' W 074°04'0 0.0
2017-Sep-13 04:00N 40°45' W 074°04'0 0.1
2017-Sep-13 03:30N 40°45' W 074°04'0 0.2
2017-Sep-13 03:00N 40°45' W 074°05'1 2.1
2017-Sep-13 02:29N 40°44' W 074°06'3 5.9
2017-Sep-13 01:59N 40°41' W 074°07'0 0.8
2017-Sep-13 01:30N 40°41' W 074°08'0 0.2
2017-Sep-13 01:00N 40°41' W 074°08'0 0.7
2017-Sep-13 00:26N 40°41' W 074°08'0 0.1
2017-Sep-12 23:59N 40°41' W 074°08'0 0.0
2017-Sep-12 23:26N 40°41' W 074°08'0 0.0
2017-Sep-12 22:47N 40°41' W 074°08'0 0.0
2017-Sep-12 22:29N 40°41' W 074°08'0 0.0
2017-Sep-12 21:56N 40°41' W 074°08'0 0.0
2017-Sep-12 20:41N 40°41' W 074°08'0 0.0
2017-Sep-12 20:17N 40°41' W 074°08'0 0.0
2017-Sep-12 19:47N 40°41' W 074°08'0 0.0
2017-Sep-12 19:29N 40°41' W 074°08'0 0.0
2017-Sep-12 18:59N 40°41' W 074°08'0 0.0
2017-Sep-12 18:23N 40°41' W 074°08'0 0.0
2017-Sep-12 17:53N 40°41' W 074°08'0 0.0
2017-Sep-12 16:47N 40°41' W 074°08'0 0.0
2017-Sep-12 16:23N 40°41' W 074°08'0 0.0
2017-Sep-12 15:56N 40°41' W 074°08'0 0.0
2017-Sep-12 15:29N 40°41' W 074°08'0 0.0
2017-Sep-12 14:44N 40°41' W 074°08'0 0.0
2017-Sep-12 14:29N 40°41' W 074°08'0 0.0
2017-Sep-12 12:59N 40°41' W 074°08'0 0.0
2017-Sep-12 12:29N 40°41' W 074°08'0 0.0
2017-Sep-12 11:59N 40°41' W 074°08'0 0.0
2017-Sep-12 11:11N 40°41' W 074°08'0 0.0
2017-Sep-12 10:50N 40°41' W 074°08'0 0.0
2017-Sep-12 09:26N 40°41' W 074°08'0 0.0
2017-Sep-12 08:59N 40°41' W 074°08'0 0.0
2017-Sep-12 08:29N 40°41' W 074°08'0 0.0
2017-Sep-12 07:59N 40°41' W 074°08'0 0.0
2017-Sep-12 07:23N 40°41' W 074°08'0 0.0
2017-Sep-12 06:59N 40°41' W 074°08'0 0.0
2017-Sep-12 06:29N 40°41' W 074°08'0 0.0
2017-Sep-12 05:59N 40°41' W 074°08'0 0.0
2017-Sep-12 05:29N 40°41' W 074°08'0 0.0
2017-Sep-12 04:41N 40°41' W 074°08'0 0.0
2017-Sep-12 04:26N 40°41' W 074°08'0 0.0
2017-Sep-12 03:59N 40°41' W 074°08'0 0.0
2017-Sep-12 03:29N 40°41' W 074°08'0 0.0
2017-Sep-12 02:59N 40°41' W 074°08'0 0.0
2017-Sep-12 02:20N 40°41' W 074°08'0 0.0
2017-Sep-12 01:59N 40°41' W 074°08'0 0.0
2017-Sep-12 01:29N 40°41' W 074°08'0 0.0
2017-Sep-12 00:59N 40°41' W 074°08'0 0.0
2017-Sep-12 00:29N 40°41' W 074°08'0 0.0
2017-Sep-11 23:29N 40°41' W 074°08'0 0.0
2017-Sep-11 22:59N 40°41' W 074°08'0 0.0
2017-Sep-11 22:29N 40°41' W 074°08'0 0.0
2017-Sep-11 21:59N 40°41' W 074°08'0 0.0
2017-Sep-11 21:29N 40°41' W 074°08'0 0.0
2017-Sep-11 20:53N 40°41' W 074°08'0 0.0
2017-Sep-11 19:36N 40°41' W 074°08'0 0.0
2017-Sep-11 19:30N 40°41' W 074°08'0 0.0
2017-Sep-11 18:54N 40°41' W 074°08'0 0.0
2017-Sep-11 17:45N 40°41' W 074°08'0 0.1
2017-Sep-11 17:30N 40°41' W 074°08'0 0.1
2017-Sep-11 16:48N 40°41' W 074°08'0 0.0
2017-Sep-11 16:21N 40°41' W 074°08'0 0.6
2017-Sep-11 15:45N 40°41' W 074°08'1 2.4
2017-Sep-11 15:30N 40°40' W 074°08'1 2.9
2017-Sep-11 15:00N 40°39' W 074°08'3 6.0
2017-Sep-11 14:30N 40°39' W 074°04'2 4.5
2017-Sep-11 14:00N 40°41' W 074°02'3 5.7
2017-Sep-11 13:30N 40°44' W 074°01'5 6.7
2017-Sep-11 12:46N 40°48' W 073°59'2 7.1
2017-Sep-11 12:30N 40°50' W 073°58'4 0.1
2017-Sep-09 09:43N 40°53' W 073°56'1 2.0
2017-Sep-09 09:25N 40°53' W 073°56'0 0.9
2017-Sep-09 08:58N 40°52' W 073°57'0 0.1
2017-Sep-09 08:28N 40°52' W 073°57'0 0.2
2017-Sep-09 07:58N 40°52' W 073°57'0 0.2
2017-Sep-09 07:28N 40°52' W 073°56'0 0.0
2017-Sep-09 06:58N 40°52' W 073°56'0 0.0
2017-Sep-09 06:22N 40°52' W 073°56'0 0.1
2017-Sep-09 03:43N 40°53' W 073°56'0 0.5
2017-Sep-09 03:19N 40°52' W 073°56'1 4.0
2017-Sep-09 03:00N 40°51' W 073°57'4 8.5
2017-Sep-09 02:30N 40°47' W 073°59'4 8.1
2017-Sep-09 02:00N 40°44' W 074°01'4 7.6
2017-Sep-09 01:30N 40°40' W 074°03'3 5.3
2017-Sep-09 00:58N 40°39' W 074°06'2 4.5
2017-Sep-09 00:30N 40°39' W 074°09'2 5.1
2017-Sep-09 00:00N 40°41' W 074°08'2 4.4
2017-Sep-08 23:30N 40°43' W 074°06'2 3.3
2017-Sep-08 22:57N 40°45' W 074°05'0 0.2
2017-Sep-08 21:29N 40°45' W 074°04'0 0.0
2017-Sep-08 19:47N 40°45' W 074°04'0 0.0
2017-Sep-08 19:23N 40°45' W 074°04'0 0.0
2017-Sep-08 18:53N 40°45' W 074°04'0 0.0
2017-Sep-08 17:29N 40°45' W 074°04'0 0.0
2017-Sep-08 16:59N 40°45' W 074°04'0 0.0
2017-Sep-08 13:47N 40°45' W 074°04'0 0.0
2017-Sep-08 13:26N 40°45' W 074°04'0 0.0
2017-Sep-08 12:56N 40°45' W 074°04'0 0.0
2017-Sep-08 12:26N 40°45' W 074°04'0 0.0
2017-Sep-08 11:02N 40°45' W 074°04'0 0.0
2017-Sep-08 05:17N 40°45' W 074°04'0 0.0
2017-Sep-08 04:59N 40°45' W 074°04'0 0.0
2017-Sep-08 04:29N 40°45' W 074°04'0 0.0
2017-Sep-08 03:59N 40°45' W 074°04'0 0.0
2017-Sep-08 03:29N 40°45' W 074°04'0 0.0
2017-Sep-08 02:59N 40°45' W 074°04'0 0.0
2017-Sep-08 02:23N 40°45' W 074°04'0 0.0
2017-Sep-08 01:53N 40°45' W 074°04'0 0.0
2017-Sep-08 01:29N 40°45' W 074°04'0 0.0
2017-Sep-08 00:17N 40°45' W 074°04'0 0.0
2017-Sep-07 23:50N 40°45' W 074°04'0 0.0
2017-Sep-07 23:29N 40°45' W 074°04'0 0.0
2017-Sep-07 22:56N 40°45' W 074°04'0 0.0
2017-Sep-07 22:26N 40°45' W 074°04'0 0.0
2017-Sep-07 21:56N 40°45' W 074°04'0 0.0
2017-Sep-07 20:53N 40°45' W 074°04'0 0.0
2017-Sep-07 20:11N 40°45' W 074°04'0 0.0
2017-Sep-07 19:53N 40°45' W 074°04'0 0.0
2017-Sep-07 19:17N 40°45' W 074°04'0 0.0
2017-Sep-07 18:59N 40°45' W 074°04'0 0.0
2017-Sep-07 18:29N 40°45' W 074°04'0 0.0
2017-Sep-07 17:59N 40°45' W 074°04'0 0.0
2017-Sep-07 17:14N 40°45' W 074°04'0 0.0
2017-Sep-07 16:59N 40°45' W 074°04'0 0.0
2017-Sep-07 16:26N 40°45' W 074°04'0 0.0
2017-Sep-07 15:56N 40°45' W 074°04'0 0.0
2017-Sep-07 15:08N 40°45' W 074°04'0 0.0
2017-Sep-07 14:59N 40°45' W 074°04'0 0.0
2017-Sep-07 14:26N 40°45' W 074°04'0 0.0
2017-Sep-07 13:47N 40°45' W 074°04'0 0.0
2017-Sep-07 13:23N 40°45' W 074°04'0 0.0
2017-Sep-07 05:29N 40°45' W 074°04'0 0.0
2017-Sep-07 04:50N 40°45' W 074°04'0 0.0
2017-Sep-07 04:26N 40°45' W 074°04'0 0.0
2017-Sep-07 03:56N 40°45' W 074°04'0 0.0
2017-Sep-07 03:29N 40°45' W 074°04'0 0.0
2017-Sep-07 02:59N 40°45' W 074°04'0 0.0
2017-Sep-07 02:29N 40°45' W 074°04'0 0.0
2017-Sep-07 01:56N 40°45' W 074°04'0 0.0
2017-Sep-07 01:23N 40°45' W 074°04'0 0.0
2017-Sep-07 00:59N 40°45' W 074°04'0 0.0
2017-Sep-07 00:29N 40°45' W 074°04'0 0.0
2017-Sep-06 23:59N 40°45' W 074°04'0 0.0
2017-Sep-06 22:05N 40°45' W 074°04'0 0.0
2017-Sep-06 21:53N 40°45' W 074°04'0 0.0
2017-Sep-06 20:26N 40°45' W 074°04'0 0.0
2017-Sep-06 19:41N 40°45' W 074°04'0 0.0
2017-Sep-06 19:23N 40°45' W 074°04'0 0.0
2017-Sep-06 18:56N 40°45' W 074°04'0 0.0
2017-Sep-06 18:20N 40°45' W 074°04'0 0.0
2017-Sep-06 17:59N 40°45' W 074°04'0 0.0
2017-Sep-06 17:29N 40°45' W 074°04'0 0.0
2017-Sep-06 16:59N 40°45' W 074°04'0 0.0
2017-Sep-06 16:23N 40°45' W 074°04'0 0.6
2017-Sep-06 15:59N 40°45' W 074°05'1 0.9
2017-Sep-06 15:19N 40°44' W 074°05'1 4.3
2017-Sep-06 15:00N 40°43' W 074°06'2 4.7
2017-Sep-06 14:30N 40°41' W 074°08'3 5.0
2017-Sep-06 13:59N 40°39' W 074°09'3 5.5
2017-Sep-06 13:30N 40°39' W 074°05'3 5.8
2017-Sep-06 13:00N 40°41' W 074°02'3 6.5
2017-Sep-06 12:30N 40°44' W 074°01'3 6.5
2017-Sep-06 12:00N 40°47' W 073°60'3 6.4
2017-Sep-06 11:31N 40°50' W 073°58'  

Dump ship's entire track history